x

Gulf Of Maine - 78 Nm East Of Portsmouth, Nh (44005) Wave Buoy

10:50 - Mon 16th Jan 2017 All times are EST. -5 hours from GMT.

  • Sig Wave height 2.3ft
  • Swell Direction
  • Peak Period 3s
  • Average Period 3s
  • Wind
    20mph, 25mph gusts
  • Sea Temp 45°f
  • Ar Temp 38°f
  • Sea Pressure 1028.1mb
  • Gulf Of Maine - 78 Nm East Of Portsmouth, Nh
  • Gulf Of Maine - 78 Nm East Of Portsmouth, Nh

More Historic Weather Station data

Upgrade to MSW Pro to gain access to the past 30 days of data for over 8000 Wavebouys and Weather Stations around the globe.

Join Pro

Comparision Forecast

View Surf forecast
   
Seg 01/16 10:50 2.5ft 3s 3s 20 25 mph 1028.1mb 45f 38f
9:50 1.6ft 11s 4s 18 22 mph 1029mb 45f 38f
8:50 1.6ft 5s 4s 13 20 mph 1029.4mb 45f 37f
7:50 1.6ft 5s 4s 11 18 mph 1029.6mb 44f 33f
6:50 2ft 4s 4s 4 11 mph 1029.7mb 44f 28f
5:50 2ft 4s 4s  -  2 mph 1030.4mb 44f 28f
4:50 2ft 5s 4s  -  4 mph 1030mb 44f 27f
3:50 2.5ft 4s 4s  -  4 mph 1030.3mb 44f 27f
2:50 2.5ft 4s 4s 4 7 mph 1030.2mb 44f 27f
1:50 2.5ft 5s 4s 7 11 mph 1030.2mb 44f 27f
12:50 3ft 5s 4s 7 13 mph 1029.7mb 45f 27f
Dom 01/15 11:50 3.5ft 5s 4s 9 13 mph 1029.3mb 45f 27f
10:50 3.5ft 5s 4s 13 18 mph 1029.1mb 45f 28f
9:50 4ft 5s 4s 16 20 mph 1029.1mb 45f 29f
8:50 3.5ft 4s 4s 18 25 mph 1028.4mb 45f 29f
7:50 3.5ft 5s 4s 20 27 mph 1028mb 45f 30f
6:50 3ft 4s 4s 18 25 mph 1027.9mb 45f 31f
5:50 3.5ft 4s 4s 20 25 mph 1026.5mb 45f 32f
4:50 3.5ft 5s 4s 20 27 mph 1025.6mb 45f 32f
3:50 4ft 5s 4s 20 25 mph 1024.6mb 45f 34f
2:50 4ft 5s 4s 22 27 mph 1023.9mb 45f 35f
1:50 4.5ft 5s 4s 22 27 mph 1023.3mb 45f 36f
12:50 5ft 5s 5s 22 27 mph 1023.1mb 45f 35f
11:50 5ft 5s 5s 22 27 mph 1022.9mb 45f 35f
10:50 5ft 5s 5s 22 29 mph 1023.4mb 45f 35f
9:50 4.5ft 5s 4s 22 29 mph 1024mb 45f 35f
8:50 3.5ft 4s 4s 20 27 mph 1023.7mb 45f 34f
7:50 3.5ft 5s 4s 20 25 mph 1022.8mb 45f 33f
6:50 3.5ft 5s 4s 16 20 mph 1022.4mb 45f 31f
5:50 4.5ft 5s 4s 16 20 mph 1021.9mb 45f 31f
4:50 5ft 6s 5s 20 25 mph 1021.4mb 45f 33f
3:50 5ft 6s 5s 20 25 mph 1021.1mb 45f 34f
2:50 5ft 6s 5s 20 27 mph 1021.5mb 45f 34f
1:50 5.5ft 6s 5s 22 27 mph 1021.7mb 45f 35f
12:50 5.5ft 6s 5s 22 29 mph 1022.1mb 45f 35f
Sáb 01/14 11:50 4.5ft 5s 4s 25 29 mph 1023mb 45f 35f
10:50 4ft 5s 4s 22 31 mph 1024.4mb 44f 35f
9:50 3ft 4s 4s 20 22 mph 1025.6mb 44f 34f
8:50 2.5ft 4s 4s 18 25 mph 1026.9mb 44f 32f
7:50 2.5ft 3s 4s 16 22 mph 1027.7mb 44f 30f
6:50 2.5ft 12s 4s 16 22 mph 1029.3mb 44f 29f
5:50 2ft 11s 4s 16 20 mph 1030.1mb 44f 28f
4:50 2ft 10s 6s 9 13 mph 1031.1mb 44f 28f
3:50 2ft 11s 5s 4 7 mph 1032.2mb 44f 26f
2:50 2.5ft 11s 5s 4 7 mph 1033.2mb 44f 25f
1:50 2.5ft 11s 4s  -  4 mph 1033.5mb 44f 25f
12:50 2.5ft 11s 5s 2 4 mph 1034.9mb 44f 24f
11:50 2.5ft 11s 5s  -  4 mph 1036.1mb 44f 24f
10:50 3ft 5s 4s 2 9 mph 1038mb 44f 22f
9:50 3ft 5s 4s 7 13 mph 1039mb 44f 21f
8:50 4ft 5s 4s 13 20 mph 1039.1mb 44f 23f
7:50 4.5ft 5s 5s 16 20 mph 1038.9mb 44f 22f
6:50 4.5ft 5s 5s 18 27 mph 1038.6mb 44f 20f
5:50 5ft 6s 5s 20 27 mph 1038.6mb 44f 20f
4:50 5.5ft 5s 5s 25 29 mph 1038.1mb 44f 21f
3:50 5.5ft 5s 5s 25 34 mph 1037.7mb 44f 22f
2:50 5.5ft 5s 5s 25 34 mph 1037.7mb 44f 23f
1:50 5.5ft 6s 5s 22 29 mph 1037.5mb 44f 23f
12:50 5.5ft 6s 5s 22 29 mph 1036.9mb 44f 24f
Sex 01/13 11:50 6ft 6s 5s 20 25 mph 1036.7mb 44f 25f
10:50 7ft 7s 5s 25 31 mph 1035.6mb 45f 26f
9:50 8ft 7s 6s 27 36 mph 1035.1mb 45f 28f
8:50 8ft 7s 6s 27 34 mph 1034.5mb 45f 29f
7:50 9ft 7s 6s 29 36 mph 1033.1mb 45f 30f
6:50 9ft 7s 6s 29 36 mph 1032mb 46f 32f
5:50 8ft 6s 6s 29 36 mph 1030.4mb 46f 34f
4:50 7.5ft 6s 5s 27 36 mph 1029.1mb 46f 36f
3:50 8ft 6s 5s 29 36 mph 1027.3mb 46f 40f
2:50 8ft 6s 6s 29 34 mph 1025.7mb 46f 43f
1:50 8ft 6s 6s 25 34 mph 1024mb 46f 45f
12:50 8ft 11s 6s 20 25 mph 1023.2mb 46f 44f
11:50 7ft 12s 6s 22 29 mph 1022.5mb 46f 43f
10:50 8ft 6s 6s 22 27 mph 1021.9mb 46f 45f
9:50 7.5ft 6s 5s 25 31 mph 1021.1mb 47f 48f
8:50 6.5ft 5s 5s 27 34 mph 1019.8mb 47f 48f
7:50 7ft 8s 5s 29 36 mph 1018.6mb 47f 49f
6:50 6.5ft 8s 6s 27 31 mph 1016.8mb 47f 48f
5:50 7ft 8s 6s 25 29 mph 1015.9mb 47f 50f
4:50 8ft 8s 6s 22 27 mph 1014.8mb 47f 51f
3:50 8ft 8s 7s 18 22 mph 1014.4mb 47f 50f
2:50 9ft 8s 7s 18 22 mph 1014.3mb 47f 49f
1:50 9ft 10s 7s 20 25 mph 1013.1mb 47f 49f
12:50 9ft 8s 6s 22 25 mph 1011.9mb 47f 49f
Qui 01/12 11:50 8ft 8s 6s 27 34 mph 1011.4mb 47f 50f
10:50 9ft 7s 6s 25 29 mph 1011.3mb 47f 49f
9:50 8ft 7s 6s 27 31 mph 1011.2mb 47f 50f
8:50 8ft 8s 6s 29 34 mph 1011.3mb 47f 49f
7:50 8ft 8s 6s 27 31 mph 1012.5mb 47f 49f
6:50 8ft 7s 6s 25 29 mph 1013.1mb 47f 49f
5:50 8ft 8s 6s 25 29 mph 1013mb 47f 49f